Time;durP1;ratioP1;P1;durP2;ratioP2;P2;SDS_P1;SDS_P2;PMS_P1;PMS_P2;Temp;Humidity;BMP_temperature;BMP_pressure;BME280_temperature;BME280_humidity;BME280_pressure;Samples;Min_cycle;Max_cycle;Signal;HPM_P1;HPM_P2
2022/01/02 00:00:10;;;;;;;;;;;21.80;48.40;;;;;;694262;28;996;-84
2022/01/02 00:00:33;;;;;;;;;;;21.80;48.40;;;;;;691041;28;1232;-85
2022/01/02 00:01:00;;;;;;;;;;;21.80;48.40;;;;;;691582;28;1469;-87
2022/01/02 00:01:20;;;;;;;;;;;21.80;48.40;;;;;;694717;28;1355;-85
2022/01/02 00:01:43;;;;;;;;;;;21.80;48.30;;;;;;692989;28;1106;-85
2022/01/02 00:02:04;;;;;;;;;;;21.90;48.40;;;;;;693218;28;822;-84
2022/01/02 00:02:27;;;;;;;;;;;21.80;48.40;;;;;;689564;28;1195;-85
2022/01/02 00:02:49;;;;;;;;;;;21.80;48.30;;;;;;692022;28;1502;-84
2022/01/02 00:03:13;;;;;;;;;;;21.80;48.30;;;;;;690185;28;1304;-84
2022/01/02 00:03:35;;;;;;;;;;;21.80;48.30;;;;;;688935;28;1419;-85
2022/01/02 00:03:59;;;;;;;;;;;21.80;48.30;;;;;;689618;28;874;-85
2022/01/02 00:04:21;;;;;;;;;;;21.80;48.30;;;;;;687196;28;1902;-84
2022/01/02 00:04:45;;;;;;;;;;;21.80;48.30;;;;;;689092;28;1463;-84
2022/01/02 00:05:09;;;;;;;;;;;21.80;48.30;;;;;;691745;28;969;-84
2022/01/02 00:05:32;;;;;;;;;;;21.80;48.30;;;;;;691944;28;1507;-85
2022/01/02 00:05:54;;;;;;;;;;;21.80;48.20;;;;;;692711;28;825;-84
2022/01/02 00:06:17;;;;;;;;;;;21.80;48.20;;;;;;691624;28;1480;-85
2022/01/02 00:06:40;;;;;;;;;;;21.80;48.30;;;;;;690031;28;1231;-84
2022/01/02 00:07:03;;;;;;;;;;;21.80;48.10;;;;;;689438;28;803;-83
2022/01/02 00:07:26;;;;;;;;;;;21.80;48.20;;;;;;690090;28;846;-85
2022/01/02 00:07:56;;;;;;;;;;;21.80;48.10;;;;;;689702;28;827;-84
2022/01/02 00:08:17;;;;;;;;;;;21.80;48.10;;;;;;691877;28;817;-85
2022/01/02 00:08:41;;;;;;;;;;;21.80;48.10;;;;;;689996;28;1299;-84
2022/01/02 00:09:04;;;;;;;;;;;21.80;48.10;;;;;;690025;28;870;-85
2022/01/02 00:09:31;;;;;;;;;;;21.80;48.10;;;;;;692674;28;838;-86
2022/01/02 00:09:52;;;;;;;;;;;21.80;48.10;;;;;;692298;28;846;-86
2022/01/02 00:10:12;;;;;;;;;;;21.80;48.00;;;;;;692770;28;834;-84
2022/01/02 00:10:34;;;;;;;;;;;21.80;48.00;;;;;;693758;28;1105;-84
2022/01/02 00:10:58;;;;;;;;;;;21.80;48.00;;;;;;692635;28;1136;-84
2022/01/02 00:11:22;;;;;;;;;;;21.80;48.00;;;;;;692725;28;873;-84
2022/01/02 00:11:42;;;;;;;;;;;21.80;48.00;;;;;;689940;28;1178;-86
2022/01/02 00:12:06;;;;;;;;;;;21.80;48.00;;;;;;687720;28;877;-84
2022/01/02 00:12:27;;;;;;;;;;;21.80;48.10;;;;;;685509;28;1347;-84
2022/01/02 00:12:50;;;;;;;;;;;21.80;48.00;;;;;;686294;28;1261;-84
2022/01/02 00:13:14;;;;;;;;;;;21.80;48.00;;;;;;687544;28;853;-84
2022/01/02 00:13:36;;;;;;;;;;;21.80;47.90;;;;;;688638;28;1213;-85
2022/01/02 00:14:02;;;;;;;;;;;21.80;48.00;;;;;;690112;28;846;-84
2022/01/02 00:14:25;;;;;;;;;;;21.80;48.00;;;;;;688559;28;1320;-85
2022/01/02 00:14:47;;;;;;;;;;;21.80;47.90;;;;;;688961;28;1192;-84
2022/01/02 00:15:08;;;;;;;;;;;21.80;47.90;;;;;;689492;28;814;-85
2022/01/02 00:15:29;;;;;;;;;;;21.80;47.90;;;;;;692738;28;1110;-84
2022/01/02 00:15:51;;;;;;;;;;;21.80;47.90;;;;;;690539;28;1521;-84
2022/01/02 00:16:15;;;;;;;;;;;21.80;47.80;;;;;;689411;28;850;-84
2022/01/02 00:16:37;;;;;;;;;;;21.80;47.80;;;;;;689311;28;1261;-85
2022/01/02 00:16:57;;;;;;;;;;;21.80;47.90;;;;;;689977;28;1332;-85
2022/01/02 00:17:22;;;;;;;;;;;21.80;47.80;;;;;;687423;28;1240;-85
2022/01/02 00:17:43;;;;;;;;;;;21.80;47.80;;;;;;687373;28;1218;-85
2022/01/02 00:18:12;;;;;;;;;;;21.80;48.10;;;;;;687242;28;1243;-85
2022/01/02 00:18:36;;;;;;;;;;;21.80;47.80;;;;;;689554;28;1251;-85
2022/01/02 00:19:07;;;;;;;;;;;21.80;47.80;;;;;;690266;28;854;-84
2022/01/02 00:19:29;;;;;;;;;;;21.80;47.60;;;;;;688329;28;1133;-85
2022/01/02 00:19:54;;;;;;;;;;;21.80;47.70;;;;;;684814;28;1133;-85
2022/01/02 00:20:18;;;;;;;;;;;21.80;47.60;;;;;;682194;28;1534;-85
2022/01/02 00:20:47;;;;;;;;;;;21.80;47.70;;;;;;684965;28;1259;-85
2022/01/02 00:21:08;;;;;;;;;;;21.80;47.70;;;;;;687327;28;889;-85
2022/01/02 00:21:31;;;;;;;;;;;21.80;47.70;;;;;;685885;28;1194;-84
2022/01/02 00:21:54;;;;;;;;;;;21.80;47.60;;;;;;685864;28;879;-85
2022/01/02 00:22:16;;;;;;;;;;;21.80;47.70;;;;;;686765;28;1268;-87
2022/01/02 00:22:40;;;;;;;;;;;21.80;47.60;;;;;;688908;28;826;-85
2022/01/02 00:23:08;;;;;;;;;;;21.80;47.70;;;;;;689498;28;943;-84
2022/01/02 00:23:32;;;;;;;;;;;21.80;47.60;;;;;;689073;28;1282;-85
2022/01/02 00:24:03;;;;;;;;;;;21.80;47.60;;;;;;691482;28;1569;-84
2022/01/02 00:24:23;;;;;;;;;;;21.90;47.70;;;;;;691013;28;1894;-87
2022/01/02 00:24:45;;;;;;;;;;;21.80;47.60;;;;;;687788;28;1257;-85
2022/01/02 00:25:12;;;;;;;;;;;21.80;47.60;;;;;;687580;28;806;-84
2022/01/02 00:25:37;;;;;;;;;;;21.80;47.60;;;;;;687482;28;1420;-85
2022/01/02 00:26:04;;;;;;;;;;;21.80;47.50;;;;;;687575;28;1248;-86
2022/01/02 00:26:34;;;;;;;;;;;21.80;47.50;;;;;;690396;28;862;-85
2022/01/02 00:26:55;;;;;;;;;;;21.80;47.60;;;;;;690207;28;1365;-85
2022/01/02 00:27:17;;;;;;;;;;;21.80;47.50;;;;;;687882;28;1440;-85
2022/01/02 00:27:37;;;;;;;;;;;21.80;47.50;;;;;;687172;28;1261;-84
2022/01/02 00:27:59;;;;;;;;;;;21.80;47.50;;;;;;687702;28;829;-85
2022/01/02 00:28:19;;;;;;;;;;;21.80;47.50;;;;;;687256;28;1210;-85
2022/01/02 00:28:40;;;;;;;;;;;21.80;47.50;;;;;;687719;28;825;-84
2022/01/02 00:29:04;;;;;;;;;;;21.80;47.50;;;;;;689952;28;1268;-85
2022/01/02 00:29:26;;;;;;;;;;;21.80;47.50;;;;;;690822;28;1229;-85
2022/01/02 00:29:46;;;;;;;;;;;21.80;47.50;;;;;;692998;28;919;-85
2022/01/02 00:30:07;;;;;;;;;;;21.80;47.50;;;;;;689369;28;1307;-85
2022/01/02 00:30:29;;;;;;;;;;;21.70;47.40;;;;;;685391;28;1281;-86
2022/01/02 00:30:50;;;;;;;;;;;21.80;47.50;;;;;;683952;28;1352;-87
2022/01/02 00:31:12;;;;;;;;;;;21.80;47.50;;;;;;683275;28;1300;-85
2022/01/02 00:31:41;;;;;;;;;;;21.70;47.50;;;;;;685761;28;799;-88
2022/01/02 00:32:08;;;;;;;;;;;21.70;47.50;;;;;;685002;28;1292;-84
2022/01/02 00:32:28;;;;;;;;;;;21.70;47.50;;;;;;687855;28;1238;-84
2022/01/02 00:32:49;;;;;;;;;;;21.70;47.50;;;;;;690056;28;1130;-84
2022/01/02 00:33:10;;;;;;;;;;;21.80;47.40;;;;;;690040;28;1132;-84
2022/01/02 00:33:31;;;;;;;;;;;21.80;47.50;;;;;;690360;28;756;-85
2022/01/02 00:33:52;;;;;;;;;;;21.70;47.40;;;;;;687372;28;1226;-84
2022/01/02 00:34:19;;;;;;;;;;;21.80;47.50;;;;;;687945;28;1203;-87
2022/01/02 00:34:40;;;;;;;;;;;21.70;47.40;;;;;;689006;28;1306;-86
2022/01/02 00:35:00;;;;;;;;;;;21.70;47.40;;;;;;688592;28;1209;-85
2022/01/02 00:35:21;;;;;;;;;;;21.70;47.50;;;;;;690114;28;860;-85
2022/01/02 00:35:42;;;;;;;;;;;21.80;47.50;;;;;;687244;28;1181;-85
2022/01/02 00:36:04;;;;;;;;;;;21.70;47.30;;;;;;688629;28;842;-85
2022/01/02 00:36:25;;;;;;;;;;;21.70;47.30;;;;;;687431;28;854;-86
2022/01/02 00:36:46;;;;;;;;;;;21.70;47.40;;;;;;687879;28;981;-86
2022/01/02 00:37:07;;;;;;;;;;;21.70;47.30;;;;;;687790;28;1170;-86
2022/01/02 00:37:28;;;;;;;;;;;21.80;47.40;;;;;;688184;28;1319;-86
2022/01/02 00:37:48;;;;;;;;;;;21.70;47.40;;;;;;687446;28;1231;-86
2022/01/02 00:38:38;;;;;;;;;;;;;;;;;;;;;
2022/01/02 00:38:59;;;;;;;;;;;21.80;47.40;;;;;;691667;28;680;-86
2022/01/02 00:39:20;;;;;;;;;;;21.80;47.30;;;;;;688489;28;1244;-87
2022/01/02 00:39:42;;;;;;;;;;;21.80;47.20;;;;;;686202;28;1284;-86
2022/01/02 00:40:03;;;;;;;;;;;21.80;47.20;;;;;;686311;28;1381;-86
2022/01/02 00:40:24;;;;;;;;;;;21.80;47.20;;;;;;687341;28;1505;-87
2022/01/02 00:40:45;;;;;;;;;;;21.80;47.10;;;;;;687321;28;1231;-84
2022/01/02 00:41:06;;;;;;;;;;;21.80;47.10;;;;;;687997;28;829;-84
2022/01/02 00:41:31;;;;;;;;;;;21.80;47.10;;;;;;687768;28;1230;-84
2022/01/02 00:41:56;;;;;;;;;;;21.80;47.00;;;;;;688291;28;1360;-86
2022/01/02 00:42:24;;;;;;;;;;;21.80;46.90;;;;;;688194;28;869;-87
2022/01/02 00:42:47;;;;;;;;;;;21.90;46.90;;;;;;687268;28;1360;-87
2022/01/02 00:43:10;;;;;;;;;;;21.90;46.90;;;;;;687187;28;1374;-86
2022/01/02 00:43:45;;;;;;;;;;;21.90;46.90;;;;;;689799;28;1222;-86
2022/01/02 00:44:08;;;;;;;;;;;21.90;46.80;;;;;;692364;28;1368;-87
2022/01/02 00:44:41;;;;;;;;;;;21.90;46.80;;;;;;691974;28;1956;-87
2022/01/02 00:45:33;;;;;;;;;;;21.90;46.70;;;;;;689706;28;1384;-86
2022/01/02 00:45:56;;;;;;;;;;;21.90;46.80;;;;;;683996;28;1320;-84
2022/01/02 00:46:17;;;;;;;;;;;21.90;46.60;;;;;;685692;28;897;-85
2022/01/02 00:46:43;;;;;;;;;;;21.90;46.50;;;;;;685670;28;1199;-84
2022/01/02 00:47:10;;;;;;;;;;;21.90;46.50;;;;;;685554;28;1234;-85
2022/01/02 00:47:36;;;;;;;;;;;21.90;46.60;;;;;;685294;28;1253;-85
2022/01/02 00:48:03;;;;;;;;;;;21.90;46.50;;;;;;682881;29;851;-84
2022/01/02 00:48:28;;;;;;;;;;;21.90;46.50;;;;;;683048;29;1246;-85
2022/01/02 00:48:50;;;;;;;;;;;22.00;46.50;;;;;;682967;28;1280;-85
2022/01/02 00:49:12;;;;;;;;;;;22.00;46.40;;;;;;682980;29;879;-85
2022/01/02 00:49:34;;;;;;;;;;;21.90;46.40;;;;;;685702;28;1149;-85
2022/01/02 00:50:09;;;;;;;;;;;22.00;46.50;;;;;;685688;28;1171;-86
2022/01/02 00:50:41;;;;;;;;;;;21.90;46.30;;;;;;684972;28;1131;-85
2022/01/02 00:51:03;;;;;;;;;;;22.00;46.30;;;;;;682902;29;859;-85
2022/01/02 00:51:29;;;;;;;;;;;22.00;46.30;;;;;;682915;28;1299;-87
2022/01/02 00:51:52;;;;;;;;;;;22.00;46.30;;;;;;681633;28;1527;-85
2022/01/02 00:52:16;;;;;;;;;;;22.00;46.30;;;;;;680295;29;1222;-85
2022/01/02 00:52:46;;;;;;;;;;;22.00;46.20;;;;;;680445;29;1240;-85
2022/01/02 00:53:09;;;;;;;;;;;22.00;46.20;;;;;;680458;29;1266;-85
2022/01/02 00:53:34;;;;;;;;;;;22.00;46.20;;;;;;680482;29;1251;-85
2022/01/02 00:53:57;;;;;;;;;;;22.00;46.20;;;;;;680166;29;1182;-86
2022/01/02 00:54:20;;;;;;;;;;;22.00;46.10;;;;;;680313;29;1226;-85
2022/01/02 00:54:43;;;;;;;;;;;22.00;46.10;;;;;;677879;29;866;-85
2022/01/02 00:55:05;;;;;;;;;;;22.00;46.10;;;;;;679997;29;874;-85
2022/01/02 00:55:26;;;;;;;;;;;22.00;46.10;;;;;;681950;29;887;-85
2022/01/02 00:55:47;;;;;;;;;;;22.00;46.20;;;;;;684740;28;827;-86
2022/01/02 00:56:09;;;;;;;;;;;22.00;46.10;;;;;;684332;28;1186;-85
2022/01/02 00:56:31;;;;;;;;;;;22.00;46.10;;;;;;682975;28;1197;-85
2022/01/02 00:56:52;;;;;;;;;;;22.00;46.10;;;;;;683091;29;965;-86
2022/01/02 00:57:14;;;;;;;;;;;22.00;46.00;;;;;;680399;29;1203;-85
2022/01/02 00:57:36;;;;;;;;;;;22.00;46.00;;;;;;680416;29;886;-86
2022/01/02 00:58:00;;;;;;;;;;;22.00;46.10;;;;;;681569;29;823;-85
2022/01/02 00:58:24;;;;;;;;;;;22.00;46.00;;;;;;684139;28;1181;-85
2022/01/02 00:58:48;;;;;;;;;;;22.00;46.00;;;;;;682915;29;1258;-86
2022/01/02 00:59:17;;;;;;;;;;;22.00;46.00;;;;;;683150;28;1280;-85
2022/01/02 00:59:46;;;;;;;;;;;22.00;45.90;;;;;;683102;28;1115;-85
2022/01/02 01:00:08;;;;;;;;;;;22.00;45.90;;;;;;684107;28;918;-85
2022/01/02 01:00:30;;;;;;;;;;;22.00;45.90;;;;;;685346;28;1462;-85
2022/01/02 01:00:51;;;;;;;;;;;22.00;45.80;;;;;;683180;29;1142;-85
2022/01/02 01:01:14;;;;;;;;;;;22.00;45.90;;;;;;685866;28;827;-86
2022/01/02 01:01:35;;;;;;;;;;;22.00;45.80;;;;;;683103;28;1340;-86
2022/01/02 01:01:59;;;;;;;;;;;22.00;45.90;;;;;;682495;29;1570;-86
2022/01/02 01:02:27;;;;;;;;;;;22.00;45.80;;;;;;680432;29;1265;-86
2022/01/02 01:02:49;;;;;;;;;;;22.00;47.00;;;;;;680362;29;1397;-85
2022/01/02 01:03:12;;;;;;;;;;;22.00;45.70;;;;;;680726;29;1365;-85
2022/01/02 01:03:33;;;;;;;;;;;22.00;45.80;;;;;;680648;29;1223;-85
2022/01/02 01:03:55;;;;;;;;;;;22.00;45.70;;;;;;680325;29;1293;-86
2022/01/02 01:04:17;;;;;;;;;;;22.00;45.70;;;;;;682374;29;1914;-86
2022/01/02 01:04:41;;;;;;;;;;;22.00;45.80;;;;;;683235;29;913;-86
2022/01/02 01:05:03;;;;;;;;;;;22.00;45.80;;;;;;681432;29;1189;-85
2022/01/02 01:05:26;;;;;;;;;;;22.00;45.70;;;;;;683136;29;1109;-86
2022/01/02 01:05:47;;;;;;;;;;;22.00;45.70;;;;;;684705;28;849;-86
2022/01/02 01:06:09;;;;;;;;;;;22.00;45.70;;;;;;682968;28;1434;-85
2022/01/02 01:06:31;;;;;;;;;;;22.00;45.60;;;;;;680603;29;1115;-86
2022/01/02 01:06:53;;;;;;;;;;;22.00;45.70;;;;;;680506;29;1252;-85
2022/01/02 01:07:14;;;;;;;;;;;22.00;45.70;;;;;;678167;29;1187;-86
2022/01/02 01:07:36;;;;;;;;;;;22.00;45.80;;;;;;677809;29;887;-86
2022/01/02 01:07:58;;;;;;;;;;;22.00;45.80;;;;;;678988;29;1278;-86
2022/01/02 01:08:19;;;;;;;;;;;21.90;45.80;;;;;;677855;29;1442;-86
2022/01/02 01:08:40;;;;;;;;;;;21.90;45.90;;;;;;678687;29;1335;-86
2022/01/02 01:09:02;;;;;;;;;;;21.90;45.90;;;;;;681457;29;888;-86
2022/01/02 01:09:26;;;;;;;;;;;21.90;45.80;;;;;;681423;29;1341;-86
2022/01/02 01:09:47;;;;;;;;;;;21.90;45.80;;;;;;681936;29;921;-86
2022/01/02 01:10:11;;;;;;;;;;;21.90;46.00;;;;;;681421;29;1218;-85
2022/01/02 01:10:35;;;;;;;;;;;21.90;46.00;;;;;;684169;28;1113;-86
2022/01/02 01:10:56;;;;;;;;;;;21.90;46.10;;;;;;683162;29;1395;-87
2022/01/02 01:11:17;;;;;;;;;;;21.90;46.10;;;;;;683239;29;1243;-86
2022/01/02 01:11:41;;;;;;;;;;;21.90;46.40;;;;;;683188;28;1487;-86
2022/01/02 01:12:03;;;;;;;;;;;21.80;46.30;;;;;;683170;29;1152;-85
2022/01/02 01:12:24;;;;;;;;;;;21.80;46.30;;;;;;680284;29;1339;-86
2022/01/02 01:12:45;;;;;;;;;;;21.80;46.30;;;;;;681703;29;1114;-86
2022/01/02 01:13:08;;;;;;;;;;;21.80;46.40;;;;;;679504;29;1138;-87
2022/01/02 01:13:29;;;;;;;;;;;21.80;46.30;;;;;;677888;29;1206;-86
2022/01/02 01:13:49;;;;;;;;;;;21.80;46.50;;;;;;679753;29;1139;-86
2022/01/02 01:14:10;;;;;;;;;;;21.80;46.50;;;;;;680555;29;1200;-86
2022/01/02 01:14:31;;;;;;;;;;;21.80;46.50;;;;;;679674;29;1345;-86
2022/01/02 01:14:52;;;;;;;;;;;21.80;46.50;;;;;;675443;29;1346;-86
2022/01/02 01:15:12;;;;;;;;;;;21.80;46.60;;;;;;678175;29;819;-86
2022/01/02 01:15:33;;;;;;;;;;;21.80;46.50;;;;;;680863;29;1514;-85
2022/01/02 01:15:54;;;;;;;;;;;21.80;46.60;;;;;;685493;28;1303;-88
2022/01/02 01:16:17;;;;;;;;;;;21.80;46.60;;;;;;685887;28;1501;-86
2022/01/02 01:16:38;;;;;;;;;;;21.80;46.60;;;;;;683180;28;1488;-86
2022/01/02 01:16:59;;;;;;;;;;;21.80;46.50;;;;;;680613;29;1394;-86
2022/01/02 01:17:20;;;;;;;;;;;21.80;46.50;;;;;;683181;29;1217;-85
2022/01/02 01:17:40;;;;;;;;;;;21.80;46.50;;;;;;683327;29;1438;-85
2022/01/02 01:18:02;;;;;;;;;;;21.80;46.50;;;;;;683176;28;1107;-86
2022/01/02 01:18:23;;;;;;;;;;;21.80;46.50;;;;;;681167;29;1253;-86
2022/01/02 01:18:44;;;;;;;;;;;21.80;46.60;;;;;;680178;29;1096;-86
2022/01/02 01:19:05;;;;;;;;;;;21.80;46.60;;;;;;680289;29;1382;-86
2022/01/02 01:19:25;;;;;;;;;;;21.70;46.70;;;;;;680333;29;1348;-86
2022/01/02 01:19:46;;;;;;;;;;;21.80;46.70;;;;;;680413;29;1224;-85
2022/01/02 01:20:08;;;;;;;;;;;21.70;46.60;;;;;;680821;29;1321;-86
2022/01/02 01:20:30;;;;;;;;;;;21.70;46.60;;;;;;682908;28;1102;-86
2022/01/02 01:20:51;;;;;;;;;;;21.70;46.60;;;;;;685373;28;901;-85
2022/01/02 01:21:12;;;;;;;;;;;21.70;46.60;;;;;;682331;28;1245;-85
2022/01/02 01:21:32;;;;;;;;;;;21.70;46.60;;;;;;677774;29;1286;-86
2022/01/02 01:21:53;;;;;;;;;;;21.70;46.60;;;;;;675753;29;1346;-85
2022/01/02 01:22:14;;;;;;;;;;;21.70;46.60;;;;;;680810;29;1099;-87
2022/01/02 01:22:35;;;;;;;;;;;21.70;46.60;;;;;;685221;28;1341;-86
2022/01/02 01:22:55;;;;;;;;;;;21.70;46.60;;;;;;686438;28;1208;-86
2022/01/02 01:23:17;;;;;;;;;;;21.70;46.50;;;;;;687072;28;1246;-86
2022/01/02 01:23:39;;;;;;;;;;;21.70;46.60;;;;;;687016;28;886;-85
2022/01/02 01:24:00;;;;;;;;;;;21.70;46.60;;;;;;687824;28;1172;-86
2022/01/02 01:24:24;;;;;;;;;;;21.70;46.60;;;;;;686852;28;1956;-85
2022/01/02 01:24:44;;;;;;;;;;;21.70;46.60;;;;;;687513;28;1267;-86
2022/01/02 01:25:08;;;;;;;;;;;21.70;46.60;;;;;;685017;28;1444;-86
2022/01/02 01:25:28;;;;;;;;;;;21.70;46.50;;;;;;685161;28;1331;-85
2022/01/02 01:25:49;;;;;;;;;;;21.70;46.50;;;;;;684639;28;1359;-85
2022/01/02 01:26:11;;;;;;;;;;;21.70;46.50;;;;;;687575;28;805;-86
2022/01/02 01:26:31;;;;;;;;;;;21.70;46.40;;;;;;684045;28;1292;-86
2022/01/02 01:26:55;;;;;;;;;;;21.70;46.50;;;;;;682166;28;1256;-85
2022/01/02 01:27:16;;;;;;;;;;;21.70;46.50;;;;;;680585;29;1210;-85
2022/01/02 01:27:37;;;;;;;;;;;21.70;46.50;;;;;;681647;29;851;-85
2022/01/02 01:27:57;;;;;;;;;;;21.70;46.60;;;;;;683399;28;1344;-86
2022/01/02 01:28:18;;;;;;;;;;;21.70;46.50;;;;;;686821;28;1202;-86
2022/01/02 01:28:39;;;;;;;;;;;21.70;46.50;;;;;;691471;28;1318;-85
2022/01/02 01:29:00;;;;;;;;;;;21.70;46.50;;;;;;688927;28;1380;-85
2022/01/02 01:29:21;;;;;;;;;;;21.70;46.50;;;;;;686091;28;1067;-85
2022/01/02 01:29:41;;;;;;;;;;;21.70;46.50;;;;;;688229;28;799;-86
2022/01/02 01:30:02;;;;;;;;;;;21.70;46.50;;;;;;691281;28;876;-86
2022/01/02 01:30:24;;;;;;;;;;;21.70;46.50;;;;;;688298;28;1090;-86
2022/01/02 01:30:45;;;;;;;;;;;21.70;46.40;;;;;;687761;28;1092;-86
2022/01/02 01:31:06;;;;;;;;;;;21.70;46.50;;;;;;686812;28;1328;-86
2022/01/02 01:31:26;;;;;;;;;;;21.70;46.50;;;;;;688201;28;1277;-86
2022/01/02 01:31:47;;;;;;;;;;;21.70;46.40;;;;;;690462;28;841;-86
2022/01/02 01:32:08;;;;;;;;;;;21.70;46.30;;;;;;687370;28;1173;-85
2022/01/02 01:32:29;;;;;;;;;;;21.70;46.50;;;;;;685110;28;1235;-86
2022/01/02 01:32:49;;;;;;;;;;;21.70;46.30;;;;;;686218;28;1229;-86
2022/01/02 01:33:10;;;;;;;;;;;21.70;46.30;;;;;;688499;28;1385;-86
2022/01/02 01:33:31;;;;;;;;;;;21.70;46.40;;;;;;685892;28;1135;-85
2022/01/02 01:33:51;;;;;;;;;;;21.70;46.30;;;;;;684736;28;1336;-85
2022/01/02 01:34:12;;;;;;;;;;;21.70;46.40;;;;;;685783;28;779;-85
2022/01/02 01:34:33;;;;;;;;;;;21.70;46.50;;;;;;685457;28;1307;-86
2022/01/02 01:34:54;;;;;;;;;;;21.70;46.50;;;;;;688985;28;1357;-88
2022/01/02 01:35:15;;;;;;;;;;;21.70;47.50;;;;;;690512;28;879;-86
2022/01/02 01:35:35;;;;;;;;;;;21.70;46.50;;;;;;691562;28;1527;-86
2022/01/02 01:35:56;;;;;;;;;;;21.70;46.40;;;;;;691474;28;779;-86
2022/01/02 01:36:17;;;;;;;;;;;21.70;46.40;;;;;;688694;28;1381;-86
2022/01/02 01:36:37;;;;;;;;;;;21.70;46.50;;;;;;689171;28;1101;-86
2022/01/02 01:37:03;;;;;;;;;;;21.70;46.40;;;;;;688715;28;1305;-86
2022/01/02 01:37:24;;;;;;;;;;;21.70;46.40;;;;;;688634;28;1323;-87
2022/01/02 01:37:44;;;;;;;;;;;21.70;46.40;;;;;;687520;28;1239;-87
2022/01/02 01:38:05;;;;;;;;;;;21.70;46.40;;;;;;687123;28;1191;-87
2022/01/02 01:38:25;;;;;;;;;;;21.70;46.40;;;;;;686780;28;1345;-87
2022/01/02 01:38:46;;;;;;;;;;;21.70;46.40;;;;;;687288;28;1232;-86
2022/01/02 01:39:07;;;;;;;;;;;21.70;46.30;;;;;;689706;28;1220;-87
2022/01/02 01:39:27;;;;;;;;;;;21.70;46.30;;;;;;688611;28;1346;-86
2022/01/02 01:39:48;;;;;;;;;;;21.70;46.40;;;;;;690643;28;1216;-87
2022/01/02 01:40:10;;;;;;;;;;;21.70;46.30;;;;;;685592;28;1134;-87
2022/01/02 01:40:34;;;;;;;;;;;21.70;46.30;;;;;;691484;28;1114;-86
2022/01/02 01:41:12;;;;;;;;;;;21.70;46.20;;;;;;685419;28;1630;-87
2022/01/02 01:41:36;;;;;;;;;;;21.70;46.20;;;;;;684739;28;911;-86
2022/01/02 01:42:06;;;;;;;;;;;21.70;46.20;;;;;;693619;28;1199;-87
2022/01/02 01:42:36;;;;;;;;;;;21.60;46.20;;;;;;692998;28;1108;-87
2022/01/02 01:43:01;;;;;;;;;;;21.70;46.20;;;;;;692137;28;1206;-87
2022/01/02 01:43:31;;;;;;;;;;;21.70;46.20;;;;;;689956;28;1209;-85
2022/01/02 01:44:05;;;;;;;;;;;21.70;46.20;;;;;;688132;28;1245;-85
2022/01/02 01:44:38;;;;;;;;;;;21.70;46.20;;;;;;690087;28;1899;-87
2022/01/02 01:45:28;;;;;;;;;;;21.70;46.10;;;;;;692837;28;830;-87
2022/01/02 01:45:49;;;;;;;;;;;21.70;46.10;;;;;;692033;28;1041;-85
2022/01/02 01:46:10;;;;;;;;;;;21.70;46.10;;;;;;692110;28;1049;-85
2022/01/02 01:46:31;;;;;;;;;;;21.60;46.00;;;;;;693043;28;1151;-86
2022/01/02 01:46:54;;;;;;;;;;;21.60;46.10;;;;;;691049;28;1228;-85
2022/01/02 01:47:15;;;;;;;;;;;21.70;46.20;;;;;;689612;28;1210;-86
2022/01/02 01:47:36;;;;;;;;;;;21.60;46.00;;;;;;691174;28;1313;-87
2022/01/02 01:47:57;;;;;;;;;;;21.70;46.10;;;;;;692917;28;945;-85
2022/01/02 01:48:18;;;;;;;;;;;21.60;46.10;;;;;;692854;28;1153;-85
2022/01/02 01:48:38;;;;;;;;;;;21.60;46.10;;;;;;692198;28;1068;-86
2022/01/02 01:48:59;;;;;;;;;;;21.70;46.10;;;;;;690094;28;1283;-86
2022/01/02 01:49:27;;;;;;;;;;;21.70;46.10;;;;;;688631;28;1229;-85
2022/01/02 01:49:47;;;;;;;;;;;21.60;46.00;;;;;;686572;28;1201;-86
2022/01/02 01:50:08;;;;;;;;;;;21.60;46.70;;;;;;685199;28;1083;-85
2022/01/02 01:50:30;;;;;;;;;;;21.60;46.00;;;;;;686756;28;1197;-86
2022/01/02 01:50:51;;;;;;;;;;;21.70;46.00;;;;;;687642;28;1187;-85
2022/01/02 01:51:11;;;;;;;;;;;21.70;46.00;;;;;;687931;28;1302;-85
2022/01/02 01:51:32;;;;;;;;;;;21.60;46.00;;;;;;686687;28;1169;-85
2022/01/02 01:51:53;;;;;;;;;;;21.60;46.00;;;;;;689900;28;1060;-85
2022/01/02 01:52:14;;;;;;;;;;;21.70;46.00;;;;;;688478;28;1424;-87
2022/01/02 01:52:35;;;;;;;;;;;21.60;46.00;;;;;;686643;28;877;-86
2022/01/02 01:52:55;;;;;;;;;;;21.60;45.90;;;;;;689335;28;1197;-86
2022/01/02 01:53:16;;;;;;;;;;;21.60;45.90;;;;;;692054;28;914;-85
2022/01/02 01:53:37;;;;;;;;;;;21.70;46.00;;;;;;691440;28;1278;-86
2022/01/02 01:53:57;;;;;;;;;;;21.70;46.00;;;;;;689226;28;1083;-85
2022/01/02 01:54:18;;;;;;;;;;;21.60;46.00;;;;;;690898;28;1341;-85
2022/01/02 01:54:39;;;;;;;;;;;21.60;45.90;;;;;;688775;28;1278;-85
2022/01/02 01:54:59;;;;;;;;;;;21.70;46.00;;;;;;689084;28;906;-85
2022/01/02 01:55:20;;;;;;;;;;;21.60;45.80;;;;;;685761;28;1268;-85
2022/01/02 01:55:41;;;;;;;;;;;21.60;45.90;;;;;;685980;28;820;-85
2022/01/02 01:56:01;;;;;;;;;;;21.70;45.90;;;;;;686007;28;1199;-86
2022/01/02 01:56:22;;;;;;;;;;;21.60;45.90;;;;;;685341;28;1195;-85
2022/01/02 01:56:43;;;;;;;;;;;21.60;45.90;;;;;;684471;28;1307;-85
2022/01/02 01:57:03;;;;;;;;;;;21.60;45.90;;;;;;684834;28;787;-85
2022/01/02 01:57:24;;;;;;;;;;;21.70;45.90;;;;;;687141;28;872;-87
2022/01/02 01:57:45;;;;;;;;;;;21.60;45.80;;;;;;684634;28;1281;-86
2022/01/02 01:58:06;;;;;;;;;;;21.60;45.90;;;;;;687462;28;1269;-85
2022/01/02 01:58:27;;;;;;;;;;;21.60;45.90;;;;;;690055;28;925;-86
2022/01/02 01:58:47;;;;;;;;;;;21.60;45.80;;;;;;689593;28;1213;-86
2022/01/02 01:59:08;;;;;;;;;;;21.70;45.90;;;;;;689685;28;1375;-86
2022/01/02 01:59:29;;;;;;;;;;;21.60;45.80;;;;;;687518;28;1320;-86
2022/01/02 01:59:49;;;;;;;;;;;21.70;45.90;;;;;;686591;28;1293;-85
2022/01/02 02:00:13;;;;;;;;;;;21.60;45.80;;;;;;684349;28;878;-85
2022/01/02 02:00:34;;;;;;;;;;;21.60;45.90;;;;;;687292;28;1126;-87
2022/01/02 02:00:55;;;;;;;;;;;21.60;45.90;;;;;;686872;28;1266;-86
2022/01/02 02:01:15;;;;;;;;;;;21.60;45.90;;;;;;687777;28;1249;-87
2022/01/02 02:01:36;;;;;;;;;;;21.70;45.90;;;;;;690411;28;1358;-86
2022/01/02 02:01:56;;;;;;;;;;;21.60;45.80;;;;;;692366;28;933;-86
2022/01/02 02:02:17;;;;;;;;;;;21.60;45.90;;;;;;691762;28;854;-86
2022/01/02 02:02:38;;;;;;;;;;;21.60;45.80;;;;;;689644;28;1145;-86
2022/01/02 02:02:58;;;;;;;;;;;21.60;45.90;;;;;;688269;28;1313;-86
2022/01/02 02:03:20;;;;;;;;;;;21.60;45.90;;;;;;688534;28;1332;-86
2022/01/02 02:03:40;;;;;;;;;;;21.60;45.80;;;;;;686961;28;1114;-87
2022/01/02 02:04:01;;;;;;;;;;;21.60;45.80;;;;;;687219;28;1346;-86
2022/01/02 02:04:22;;;;;;;;;;;21.60;45.80;;;;;;687291;28;1898;-87
2022/01/02 02:04:42;;;;;;;;;;;21.60;45.80;;;;;;687425;28;1205;-87
2022/01/02 02:05:03;;;;;;;;;;;21.60;45.80;;;;;;686519;28;1365;-87
2022/01/02 02:05:24;;;;;;;;;;;21.60;45.80;;;;;;684958;28;1540;-87
2022/01/02 02:05:45;;;;;;;;;;;21.60;45.80;;;;;;687489;28;1164;-88
2022/01/02 02:06:05;;;;;;;;;;;21.60;45.80;;;;;;684686;28;1351;-87
2022/01/02 02:06:26;;;;;;;;;;;21.60;45.70;;;;;;684548;28;1470;-86
2022/01/02 02:06:47;;;;;;;;;;;21.60;45.80;;;;;;686392;28;1349;-87
2022/01/02 02:07:07;;;;;;;;;;;21.60;45.80;;;;;;684511;28;1244;-87
2022/01/02 02:07:37;;;;;;;;;;;21.60;45.80;;;;;;684819;28;1153;-87
2022/01/02 02:07:58;;;;;;;;;;;21.60;45.70;;;;;;686302;28;1292;-87
2022/01/02 02:08:20;;;;;;;;;;;21.60;45.80;;;;;;684316;28;1232;-87
2022/01/02 02:08:41;;;;;;;;;;;21.60;45.70;;;;;;683156;28;1288;-87
2022/01/02 02:09:03;;;;;;;;;;;21.60;45.70;;;;;;684179;28;768;-87
2022/01/02 02:09:28;;;;;;;;;;;21.70;45.70;;;;;;688205;28;1182;-88
2022/01/02 02:10:11;;;;;;;;;;;21.60;45.80;;;;;;689833;28;784;-87
2022/01/02 02:10:39;;;;;;;;;;;21.60;45.70;;;;;;690661;28;1185;-87
2022/01/02 02:11:00;;;;;;;;;;;21.60;45.80;;;;;;690296;28;1236;-87
2022/01/02 02:11:20;;;;;;;;;;;21.60;45.70;;;;;;689427;28;1192;-87
2022/01/02 02:11:41;;;;;;;;;;;21.60;45.70;;;;;;689730;28;1173;-87
2022/01/02 02:12:02;;;;;;;;;;;21.60;45.70;;;;;;687879;28;1243;-86
2022/01/02 02:12:23;;;;;;;;;;;21.60;45.80;;;;;;691691;28;869;-86
2022/01/02 02:12:47;;;;;;;;;;;21.60;46.80;;;;;;689824;28;1111;-87
2022/01/02 02:13:08;;;;;;;;;;;21.60;45.70;;;;;;689110;28;1095;-87
2022/01/02 02:13:28;;;;;;;;;;;21.60;45.70;;;;;;688075;28;1315;-86
2022/01/02 02:13:50;;;;;;;;;;;21.60;45.70;;;;;;686665;28;1122;-86
2022/01/02 02:14:10;;;;;;;;;;;21.60;45.70;;;;;;683002;29;1329;-86
2022/01/02 02:14:32;;;;;;;;;;;21.60;45.70;;;;;;684104;28;1099;-86
2022/01/02 02:14:53;;;;;;;;;;;21.60;45.70;;;;;;683580;29;1236;-86
2022/01/02 02:15:15;;;;;;;;;;;21.60;45.70;;;;;;683666;28;1091;-86
2022/01/02 02:15:36;;;;;;;;;;;21.60;45.70;;;;;;683774;28;1361;-86
2022/01/02 02:15:59;;;;;;;;;;;21.60;45.70;;;;;;682322;28;1223;-86
2022/01/02 02:16:19;;;;;;;;;;;21.60;45.60;;;;;;681628;28;1373;-87
2022/01/02 02:16:40;;;;;;;;;;;21.60;45.80;;;;;;679735;29;1383;-86
2022/01/02 02:17:01;;;;;;;;;;;21.60;45.80;;;;;;682493;28;814;-86